Aérodrome :
LOGIN :

S'inscrire | Disclaimer

   EN    FR    IT 

 










Légende :    VFR   VFR Marginal   IFR   IFR Intensif   IFR Très Intensif
Visi : 
Plafond : 
>= 8 km
>= 3000ft
5 à 8 km
1000 à 3000 ft
1500m à 5 km
500 à 1000 ft
800 à 1500m
200 à 500 ft
< 800m
< 200 ft
Symboles :   Orages  Brouillard  Fortes neiges  Fortes précipitations  Vent > 20 kt
SIGMETs :   Divers  Orages  Givrage  Turbulence  Onde Orograph.  Cendres Volcan.







- Altitude de l'aérodrome : 147 ft
- Code IATA : DUS


EDDL - Düsseldorf Int.

DERNIER METAR :
  • 260720Z 20007KT 170V230 CAVOK 16/11 Q1015 BECMG 22013KT

METARs EXPIRÉS :
  • 260650Z 19008KT 160V220 CAVOK 15/10 Q1015 BECMG 22013KT
  • 260620Z 18007KT 150V210 CAVOK 14/10 Q1015 BECMG 22013KT
  • 260550Z 18008KT CAVOK 13/10 Q1015 BECMG 22013KT
  • 260520Z 19007KT 8000 NSC 13/10 Q1015 NOSIG
  • 260450Z 19006KT 8000 NSC 12/10 Q1015 NOSIG

TAF TAF EDDL
Valide du 26 à 06h jusqu'au 27 à 12h UTC


260500Z 2606/2712 20007KT CAVOK
BECMG 2608/2611 23013KT
TEMPO 2612/2616 24015G25KT
BECMG 2701/2704 25008KT BKN012
TEMPO 2704/2706 BKN008
BECMG 2706/2709 SCT030
Pas de NOTAMs connus pour ce terrain.



MET'MAP, la Météo Aéronautique d'un coup d'oeil ! - Copyright ORBIFLY Décembre 2007 - Disclaimer

ORBIFLY MET'MAP TEAM :

Programmation & Développement : Alexandra Zaïnal
Conception & Développement : Baudouin d'Aumeries
Co-Programmation & Développement : Marc-Olivier Méhu
Soutien technique & logistique : Manuel Goepfert

Contact : metmap@orbifly.com




SOURCES & CREDITS :

   NOAA